Time;durP1;ratioP1;P1;durP2;ratioP2;P2;SDS_P1;SDS_P2;PMS_P1;PMS_P2;Temp;Humidity;BMP_temperature;BMP_pressure;BME280_temperature;BME280_humidity;BME280_pressure;Samples;Min_cycle;Max_cycle;Signal;HPM_P1;HPM_P2
2022/03/30 00:00:27;;;;;;;;;;;;;;;;;;4916732;28;19973;-59
2022/03/30 00:02:54;;;;;;;;;;;;;;;;;;4916979;29;19935;-59
2022/03/30 00:05:20;;;;;;;;;;;;;;;;;;4910554;29;20352;-61
2022/03/30 00:17:15;;;;;;;4.40;0.75;;;;;;;;;;5010977;27;20446;-64
2022/03/30 00:19:41;;;;;;;6.78;1.20;;;;;;;;;;5002028;28;20053;-68
2022/03/30 00:22:09;;;;;;;8.85;1.20;;;;;;;;;;5047203;28;20040;-67
2022/03/30 00:24:38;;;;;;;3.72;1.15;;;;;;;;;;5054732;28;20064;-65
2022/03/30 00:27:06;;;;;;;6.82;2.05;;;;;;;;;;5050432;28;20267;-65
2022/03/30 00:29:33;;;;;;;3.33;0.82;;;;;;;;;;5056048;28;20738;-66
2022/03/30 00:31:59;;;;;;;3.67;1.10;;;;;;;;;;5052972;28;20042;-64
2022/03/30 00:34:26;;;;;;;3.60;1.00;;;;;;;;;;5055505;28;20471;-63
2022/03/30 00:36:53;;;;;;;3.13;0.90;;;;;;;;;;5057918;28;20052;-64
2022/03/30 00:39:20;;;;;;;7.95;0.90;;;;;;;;;;5033071;28;20044;-64
2022/03/30 00:41:46;;;;;;;3.08;0.80;;;;;;;;;;5063450;28;20045;-65
2022/03/30 00:44:14;;;;;;;4.88;1.10;;;;;;;;;;5042112;28;20032;-65
2022/03/30 00:46:45;;;;;;;2.95;0.85;;;;;;;;;;5056731;28;20447;-65
2022/03/30 00:49:15;;;;;;;4.18;0.88;;;;;;;;;;5058492;28;20052;-65
2022/03/30 00:51:41;;;;;;;4.28;1.00;;;;;;;;;;5055872;28;20468;-64
2022/03/30 00:54:08;;;;;;;4.45;0.68;;;;;;;;;;5069653;28;20594;-63
2022/03/30 00:56:36;;;;;;;3.15;1.00;;;;;;;;;;5068672;28;20159;-65
2022/03/30 00:59:07;;;;;;;4.35;1.10;;;;;;;;;;5068837;28;20047;-64
2022/03/30 01:01:34;;;;;;;3.35;1.23;;;;;;;;;;5068707;28;20075;-64
2022/03/30 01:04:04;;;;;;;5.63;1.65;;;;;;;;;;5050599;28;20033;-65
2022/03/30 01:06:31;;;;;;;3.88;1.17;;;;;;;;;;5043070;28;20131;-65
2022/03/30 01:08:59;;;;;;;2.60;0.80;;;;;;;;;;5047785;28;20043;-65
2022/03/30 01:11:26;;;;;;;3.80;1.33;;;;;;;;;;5056166;28;20044;-65
2022/03/30 01:13:53;;;;;;;3.90;1.13;;;;;;;;;;5051005;28;20073;-63
2022/03/30 01:16:20;;;;;;;4.13;1.20;;;;;;;;;;5033536;28;20045;-65
2022/03/30 01:18:47;;;;;;;2.95;0.80;;;;;;;;;;5073578;28;20051;-65
2022/03/30 01:21:14;;;;;;;4.05;0.90;;;;;;;;;;5052057;28;20033;-63
2022/03/30 01:23:41;;;;;;;5.15;1.00;;;;;;;;;;5038496;28;20436;-66
2022/03/30 01:26:08;;;;;;;4.72;2.00;;;;;;;;;;5052761;28;20033;-66
2022/03/30 01:28:35;;;;;;;4.32;1.90;;;;;;;;;;5034024;28;20115;-65
2022/03/30 01:33:48;;;;;;;4.65;1.45;;;;;;;;;;5029904;28;20045;-64
2022/03/30 01:36:18;;;;;;;5.57;1.30;;;;;;;;;;5020096;28;20145;-64
2022/03/30 01:38:44;;;;;;;3.85;1.00;;;;;;;;;;5034501;28;20038;-64
2022/03/30 01:41:12;;;;;;;4.22;1.10;;;;;;;;;;5021561;28;20150;-63
2022/03/30 01:43:39;;;;;;;3.25;0.88;;;;;;;;;;5017465;28;20144;-64
2022/03/30 01:46:06;;;;;;;3.88;1.10;;;;;;;;;;5034569;28;20443;-64
2022/03/30 01:48:32;;;;;;;6.88;0.90;;;;;;;;;;5039884;28;20037;-64
2022/03/30 01:51:02;;;;;;;5.43;1.13;;;;;;;;;;5044081;28;20051;-65
2022/03/30 01:53:29;;;;;;;6.07;1.15;;;;;;;;;;5042685;28;20041;-64
2022/03/30 01:55:56;;;;;;;5.05;1.70;;;;;;;;;;5037870;28;20131;-64
2022/03/30 01:58:23;;;;;;;4.57;1.27;;;;;;;;;;5042950;28;20095;-66
2022/03/30 02:00:50;;;;;;;5.28;1.10;;;;;;;;;;5055726;28;20045;-65
2022/03/30 02:03:16;;;;;;;5.50;1.17;;;;;;;;;;5057105;28;20045;-64
2022/03/30 02:05:43;;;;;;;5.13;1.70;;;;;;;;;;5029232;28;20079;-64
2022/03/30 02:08:10;;;;;;;3.95;1.50;;;;;;;;;;5035793;28;20959;-67
2022/03/30 02:10:38;;;;;;;3.53;1.33;;;;;;;;;;5043214;28;20041;-65
2022/03/30 02:13:05;;;;;;;6.40;1.52;;;;;;;;;;5021718;28;20124;-65
2022/03/30 02:15:32;;;;;;;5.63;1.70;;;;;;;;;;5019325;28;20057;-65
2022/03/30 02:17:59;;;;;;;6.88;1.52;;;;;;;;;;5043896;28;20685;-66
2022/03/30 02:20:26;;;;;;;6.47;1.70;;;;;;;;;;5030273;28;20045;-65
2022/03/30 02:22:53;;;;;;;6.07;1.70;;;;;;;;;;5044761;28;20056;-65
2022/03/30 02:25:19;;;;;;;5.35;1.30;;;;;;;;;;5049533;28;20519;-65
2022/03/30 02:27:46;;;;;;;5.40;1.40;;;;;;;;;;5043924;28;20071;-63
2022/03/30 02:30:13;;;;;;;4.60;1.33;;;;;;;;;;5056746;28;20041;-64
2022/03/30 02:32:42;;;;;;;4.50;1.27;;;;;;;;;;5034591;28;20092;-65
2022/03/30 02:35:09;;;;;;;4.50;1.45;;;;;;;;;;5044115;28;20059;-65
2022/03/30 02:37:36;;;;;;;5.13;1.30;;;;;;;;;;5054226;28;20040;-65
2022/03/30 02:40:03;;;;;;;2.78;1.17;;;;;;;;;;5034914;28;20045;-64
2022/03/30 02:42:30;;;;;;;6.05;1.40;;;;;;;;;;5021301;28;20041;-65
2022/03/30 02:44:56;;;;;;;5.43;1.50;;;;;;;;;;5035857;28;20045;-66
2022/03/30 02:48:17;;;;;;;8.07;1.90;;;;;;;;;;5041801;28;20051;-65
2022/03/30 02:50:10;;;;;;;3.83;1.15;;;;;;;;;;5040375;28;20524;-64
2022/03/30 02:52:42;;;;;;;5.50;1.13;;;;;;;;;;5043946;28;20028;-64
2022/03/30 02:55:09;;;;;;;3.13;1.00;;;;;;;;;;5045226;28;20028;-64
2022/03/30 02:57:36;;;;;;;5.10;1.10;;;;;;;;;;5044024;28;20061;-64
2022/03/30 03:00:04;;;;;;;4.07;1.30;;;;;;;;;;5036612;28;20065;-65
2022/03/30 03:02:31;;;;;;;5.03;1.30;;;;;;;;;;5017771;28;20045;-64
2022/03/30 03:04:58;;;;;;;3.42;1.23;;;;;;;;;;5015542;28;20125;-66
2022/03/30 03:07:24;;;;;;;5.28;1.15;;;;;;;;;;4970575;28;20390;-64
2022/03/30 03:09:52;;;;;;;3.47;0.88;;;;;;;;;;5034353;28;20503;-65
2022/03/30 03:12:19;;;;;;;6.95;1.63;;;;;;;;;;5041425;28;20039;-64
2022/03/30 03:14:46;;;;;;;3.90;1.40;;;;;;;;;;5043314;28;20385;-62
2022/03/30 03:17:13;;;;;;;7.25;1.95;;;;;;;;;;5042352;28;20048;-65
2022/03/30 03:19:41;;;;;;;8.70;1.13;;;;;;;;;;5041828;28;20029;-64
2022/03/30 03:22:08;;;;;;;4.90;1.20;;;;;;;;;;5043276;28;20037;-63
2022/03/30 03:24:35;;;;;;;5.15;1.33;;;;;;;;;;5038894;28;20064;-64
2022/03/30 03:27:01;;;;;;;4.72;1.15;;;;;;;;;;5035133;28;20244;-63
2022/03/30 03:29:28;;;;;;;3.53;1.00;;;;;;;;;;5044190;28;20400;-65
2022/03/30 03:31:55;;;;;;;3.70;1.27;;;;;;;;;;5028817;28;20116;-63
2022/03/30 03:34:22;;;;;;;4.30;1.10;;;;;;;;;;5039334;28;20105;-64
2022/03/30 03:36:49;;;;;;;6.97;1.00;;;;;;;;;;5040503;28;20045;-65
2022/03/30 03:39:16;;;;;;;3.65;1.02;;;;;;;;;;5042626;28;20492;-64
2022/03/30 03:41:43;;;;;;;4.68;0.85;;;;;;;;;;5043617;28;20116;-66
2022/03/30 03:44:11;;;;;;;8.10;1.40;;;;;;;;;;5042799;28;20092;-64
2022/03/30 03:46:37;;;;;;;8.02;0.95;;;;;;;;;;5038693;28;20037;-64
2022/03/30 03:49:04;;;;;;;4.53;1.40;;;;;;;;;;5042378;28;20102;-64
2022/03/30 03:51:31;;;;;;;3.00;0.98;;;;;;;;;;5041447;28;20076;-64
2022/03/30 03:53:58;;;;;;;4.00;1.40;;;;;;;;;;5041895;28;20491;-64
2022/03/30 03:56:25;;;;;;;4.20;1.02;;;;;;;;;;5029699;28;20089;-64
2022/03/30 03:58:52;;;;;;;5.15;1.33;;;;;;;;;;5032832;28;20051;-64
2022/03/30 04:01:19;;;;;;;3.88;1.20;;;;;;;;;;5042544;28;20036;-64
2022/03/30 04:03:45;;;;;;;6.47;1.13;;;;;;;;;;5041208;28;20052;-65
2022/03/30 04:06:12;;;;;;;4.40;1.15;;;;;;;;;;5051827;28;20045;-64
2022/03/30 04:08:39;;;;;;;3.05;1.13;;;;;;;;;;5041751;28;20033;-64
2022/03/30 04:11:05;;;;;;;4.25;1.20;;;;;;;;;;5043638;28;20045;-63
2022/03/30 04:13:32;;;;;;;4.78;1.48;;;;;;;;;;5042419;28;20037;-64
2022/03/30 04:15:59;;;;;;;3.72;1.30;;;;;;;;;;5042377;28;20657;-64
2022/03/30 04:18:25;;;;;;;3.00;1.30;;;;;;;;;;5042896;28;20045;-63
2022/03/30 04:20:52;;;;;;;6.15;1.30;;;;;;;;;;5043364;28;20985;-63
2022/03/30 04:23:19;;;;;;;6.35;1.60;;;;;;;;;;5041244;28;20044;-63
2022/03/30 04:25:46;;;;;;;9.75;1.63;;;;;;;;;;5030710;28;20576;-63
2022/03/30 04:28:17;;;;;;;4.97;1.38;;;;;;;;;;5043178;28;20071;-63
2022/03/30 04:30:44;;;;;;;3.60;1.13;;;;;;;;;;5042808;28;20033;-63
2022/03/30 04:33:11;;;;;;;4.20;1.58;;;;;;;;;;5024949;28;20489;-62
2022/03/30 04:35:38;;;;;;;5.88;1.77;;;;;;;;;;5041435;28;21057;-63
2022/03/30 04:38:05;;;;;;;6.40;1.63;;;;;;;;;;5042902;28;20052;-63
2022/03/30 04:40:32;;;;;;;9.40;1.63;;;;;;;;;;5043218;28;20076;-63
2022/03/30 04:42:59;;;;;;;5.28;1.67;;;;;;;;;;5044338;28;20502;-62
2022/03/30 04:45:26;;;;;;;5.63;1.52;;;;;;;;;;5038476;28;20416;-62
2022/03/30 04:47:57;;;;;;;3.20;1.20;;;;;;;;;;5033571;28;20938;-62
2022/03/30 04:50:25;;;;;;;5.95;1.52;;;;;;;;;;5042101;28;20033;-62
2022/03/30 04:52:52;;;;;;;5.25;1.20;;;;;;;;;;5042763;28;20037;-63
2022/03/30 04:55:20;;;;;;;4.13;1.52;;;;;;;;;;5041092;28;20768;-63
2022/03/30 04:57:46;;;;;;;3.20;1.08;;;;;;;;;;5041329;28;20505;-63
2022/03/30 05:00:13;;;;;;;5.63;1.35;;;;;;;;;;5049379;28;20426;-62
2022/03/30 05:02:40;;;;;;;4.35;1.40;;;;;;;;;;5020525;28;20080;-62
2022/03/30 05:05:09;;;;;;;3.70;1.42;;;;;;;;;;5044803;28;20548;-63
2022/03/30 05:07:36;;;;;;;7.25;1.85;;;;;;;;;;5044792;28;20047;-62
2022/03/30 05:10:05;;;;;;;5.97;1.60;;;;;;;;;;5045661;28;20044;-62
2022/03/30 05:12:32;;;;;;;4.72;1.52;;;;;;;;;;5044962;28;20041;-62
2022/03/30 05:14:59;;;;;;;3.13;1.23;;;;;;;;;;5043648;28;20156;-62
2022/03/30 05:17:26;;;;;;;6.80;1.35;;;;;;;;;;5043299;28;20049;-63
2022/03/30 05:19:52;;;;;;;10.07;1.65;;;;;;;;;;5046970;28;20044;-62
2022/03/30 05:22:19;;;;;;;3.83;1.40;;;;;;;;;;5045705;28;20071;-62
2022/03/30 05:24:46;;;;;;;4.63;1.30;;;;;;;;;;5034735;28;20521;-63
2022/03/30 05:27:13;;;;;;;6.38;1.45;;;;;;;;;;5046192;28;20037;-64
2022/03/30 05:29:40;;;;;;;3.60;1.48;;;;;;;;;;5036912;28;20049;-62
2022/03/30 05:32:07;;;;;;;9.63;1.33;;;;;;;;;;5046897;28;20044;-62
2022/03/30 05:34:34;;;;;;;7.97;1.80;;;;;;;;;;5046433;28;20044;-62
2022/03/30 05:37:00;;;;;;;6.70;1.55;;;;;;;;;;5046049;28;20811;-61
2022/03/30 05:39:27;;;;;;;7.15;1.40;;;;;;;;;;5046718;28;20044;-61
2022/03/30 05:41:54;;;;;;;6.35;1.50;;;;;;;;;;5048510;28;20053;-62
2022/03/30 05:44:21;;;;;;;8.73;1.65;;;;;;;;;;5047301;28;20581;-62
2022/03/30 05:46:48;;;;;;;4.57;1.40;;;;;;;;;;5049167;28;20083;-61
2022/03/30 05:49:16;;;;;;;3.20;1.15;;;;;;;;;;5049673;28;20104;-63
2022/03/30 05:51:43;;;;;;;5.05;1.77;;;;;;;;;;5047409;28;20040;-62
2022/03/30 05:54:09;;;;;;;6.10;1.55;;;;;;;;;;5046938;28;20041;-62
2022/03/30 05:59:21;;;;;;;3.95;1.50;;;;;;;;;;5045162;28;20159;-62
2022/03/30 06:01:48;;;;;;;4.88;1.52;;;;;;;;;;5045704;28;20305;-62
2022/03/30 06:04:15;;;;;;;3.90;1.70;;;;;;;;;;5046636;28;20051;-62
2022/03/30 06:06:41;;;;;;;4.65;1.73;;;;;;;;;;5043763;28;20036;-62
2022/03/30 06:09:08;;;;;;;6.88;1.73;;;;;;;;;;5044589;28;20048;-62
2022/03/30 06:11:35;;;;;;;3.65;1.40;;;;;;;;;;5044939;28;20078;-62
2022/03/30 06:14:02;;;;;;;4.20;1.65;;;;;;;;;;5045636;28;20167;-62
2022/03/30 06:16:29;;;;;;;3.70;1.27;;;;;;;;;;5040812;28;20071;-62
2022/03/30 06:18:56;;;;;;;2.88;1.30;;;;;;;;;;5050462;28;20156;-62
2022/03/30 06:21:22;;;;;;;5.03;1.30;;;;;;;;;;5025327;28;20075;-63
2022/03/30 06:23:49;;;;;;;5.43;1.40;;;;;;;;;;5042638;28;20416;-63
2022/03/30 06:26:16;;;;;;;6.55;1.55;;;;;;;;;;5042916;28;20893;-61
2022/03/30 06:28:43;;;;;;;5.13;1.42;;;;;;;;;;5043206;28;20037;-62
2022/03/30 06:31:13;;;;;;;7.35;1.70;;;;;;;;;;5044864;28;20036;-63
2022/03/30 06:33:39;;;;;;;3.70;1.58;;;;;;;;;;5058832;28;20179;-62
2022/03/30 06:36:06;;;;;;;4.10;1.52;;;;;;;;;;5043182;28;20045;-62
2022/03/30 06:38:33;;;;;;;4.43;1.60;;;;;;;;;;5043658;28;20048;-63
2022/03/30 06:40:59;;;;;;;5.63;1.50;;;;;;;;;;5040562;28;20441;-63
2022/03/30 06:43:26;;;;;;;3.83;1.40;;;;;;;;;;5044312;28;20087;-63
2022/03/30 06:45:53;;;;;;;3.78;1.30;;;;;;;;;;5043564;28;20036;-62
2022/03/30 06:48:20;;;;;;;5.57;1.33;;;;;;;;;;5024119;28;20077;-63
2022/03/30 06:50:47;;;;;;;7.20;1.40;;;;;;;;;;5043423;28;20029;-63
2022/03/30 06:53:14;;;;;;;3.83;1.48;;;;;;;;;;5034530;28;20072;-63
2022/03/30 06:55:41;;;;;;;4.57;1.35;;;;;;;;;;5042970;28;20047;-63
2022/03/30 06:58:08;;;;;;;3.35;1.30;;;;;;;;;;5043191;28;20037;-63
2022/03/30 07:00:35;;;;;;;5.63;1.60;;;;;;;;;;5042936;28;20143;-63
2022/03/30 07:03:02;;;;;;;3.65;1.50;;;;;;;;;;5042978;28;20071;-63
2022/03/30 07:05:31;;;;;;;6.00;1.50;;;;;;;;;;5041735;28;20041;-63
2022/03/30 07:10:43;;;;;;;3.33;1.23;;;;;;;;;;5041957;28;20068;-63
2022/03/30 07:13:10;;;;;;;3.00;1.25;;;;;;;;;;5042311;28;20041;-63
2022/03/30 07:15:38;;;;;;;6.82;1.38;;;;;;;;;;5041253;28;20195;-63
2022/03/30 07:18:07;;;;;;;4.03;1.35;;;;;;;;;;5044520;28;20076;-63
2022/03/30 07:20:34;;;;;;;4.28;1.55;;;;;;;;;;5042631;28;20052;-63
2022/03/30 07:23:01;;;;;;;9.95;2.88;;;;;;;;;;5044006;28;20033;-63
2022/03/30 07:25:28;;;;;;;5.60;1.67;;;;;;;;;;5031543;28;20120;-63
2022/03/30 07:27:58;;;;;;;3.65;1.48;;;;;;;;;;5044001;28;20045;-63
2022/03/30 07:30:25;;;;;;;4.03;1.55;;;;;;;;;;5041846;28;20072;-63
2022/03/30 07:32:53;;;;;;;3.08;1.30;;;;;;;;;;5044026;28;20104;-63
2022/03/30 07:35:22;;;;;;;5.55;1.50;;;;;;;;;;5042389;28;20037;-63
2022/03/30 07:37:49;;;;;;;5.22;1.60;;;;;;;;;;5044559;28;20064;-63
2022/03/30 07:40:17;;;;;;;6.80;1.40;;;;;;;;;;5034373;28;20124;-63
2022/03/30 07:42:45;;;;;;;6.70;1.67;;;;;;;;;;5044598;28;20044;-63
2022/03/30 07:45:12;;;;;;;7.10;1.52;;;;;;;;;;5059053;28;20061;-63
2022/03/30 07:47:39;;;;;;;4.10;1.35;;;;;;;;;;5034443;28;20540;-64
2022/03/30 07:50:07;;;;;;;8.63;1.70;;;;;;;;;;5044241;28;20037;-61
2022/03/30 07:52:34;;;;;;;5.55;1.30;;;;;;;;;;5044237;28;20098;-62
2022/03/30 07:55:01;;;;;;;4.32;1.50;;;;;;;;;;5042891;28;20361;-62
2022/03/30 07:57:28;;;;;;;3.17;1.45;;;;;;;;;;5043011;28;20668;-63
2022/03/30 07:59:55;;;;;;;3.20;1.38;;;;;;;;;;5043248;28;20292;-62
2022/03/30 08:02:22;;;;;;;3.05;1.30;;;;;;;;;;5043081;28;20046;-63
2022/03/30 08:04:49;;;;;;;4.50;1.55;;;;;;;;;;5042977;28;20055;-62
2022/03/30 08:07:16;;;;;;;4.65;1.55;;;;;;;;;;5042670;28;22486;-61
2022/03/30 08:09:43;;;;;;;3.95;1.55;;;;;;;;;;5029232;28;20832;-62
2022/03/30 08:12:11;;;;;;;5.65;1.70;;;;;;;;;;5019639;28;20045;-62
2022/03/30 08:14:38;;;;;;;3.88;1.50;;;;;;;;;;5038276;28;20040;-62
2022/03/30 08:17:05;;;;;;;3.33;1.30;;;;;;;;;;5035474;28;20097;-62
2022/03/30 08:19:31;;;;;;;3.90;1.45;;;;;;;;;;5033445;28;20041;-62
2022/03/30 08:24:46;;;;;;;3.75;1.27;;;;;;;;;;5029430;28;20044;-62
2022/03/30 08:27:17;;;;;;;5.32;1.27;;;;;;;;;;5018771;28;20064;-62
2022/03/30 08:29:44;;;;;;;5.40;1.35;;;;;;;;;;5043551;28;20036;-63
2022/03/30 08:32:12;;;;;;;4.68;1.38;;;;;;;;;;5042878;28;20079;-62
2022/03/30 08:34:39;;;;;;;4.32;1.20;;;;;;;;;;5042774;28;20066;-62
2022/03/30 08:37:06;;;;;;;3.20;1.25;;;;;;;;;;5040746;28;20428;-63
2022/03/30 08:39:36;;;;;;;4.65;1.20;;;;;;;;;;5045635;28;20131;-63
2022/03/30 08:42:03;;;;;;;3.63;1.48;;;;;;;;;;5035473;28;21558;-63
2022/03/30 08:44:31;;;;;;;6.22;1.48;;;;;;;;;;5044561;28;20048;-62
2022/03/30 08:46:58;;;;;;;7.70;1.55;;;;;;;;;;5043983;28;20132;-62
2022/03/30 08:49:26;;;;;;;3.95;1.40;;;;;;;;;;5044776;28;20068;-62
2022/03/30 08:51:53;;;;;;;7.45;1.55;;;;;;;;;;5045203;28;20040;-61
2022/03/30 08:54:20;;;;;;;3.30;1.38;;;;;;;;;;5046302;28;20047;-61
2022/03/30 08:56:48;;;;;;;3.67;1.77;;;;;;;;;;5032916;28;20044;-61
2022/03/30 08:59:19;;;;;;;3.40;1.50;;;;;;;;;;5045269;28;20082;-61
2022/03/30 09:01:46;;;;;;;3.88;1.33;;;;;;;;;;5044102;28;20806;-61
2022/03/30 09:04:14;;;;;;;2.90;1.25;;;;;;;;;;5045117;28;20036;-62
2022/03/30 09:06:42;;;;;;;7.60;1.58;;;;;;;;;;5041403;28;20057;-61
2022/03/30 09:09:09;;;;;;;4.32;1.65;;;;;;;;;;5030760;28;20040;-61
2022/03/30 09:11:43;;;;;;;4.00;1.80;;;;;;;;;;5044325;28;20037;-63
2022/03/30 09:14:11;;;;;;;3.78;1.63;;;;;;;;;;5045269;28;20432;-62
2022/03/30 09:16:45;;;;;;;3.80;1.40;;;;;;;;;;5044153;28;20395;-62
2022/03/30 09:19:13;;;;;;;4.53;1.58;;;;;;;;;;5045055;28;20051;-62
2022/03/30 09:21:40;;;;;;;3.92;1.42;;;;;;;;;;5043478;28;20036;-64
2022/03/30 09:24:07;;;;;;;6.22;1.70;;;;;;;;;;5045202;28;20041;-62
2022/03/30 09:26:34;;;;;;;5.70;1.52;;;;;;;;;;5043239;28;20044;-63
2022/03/30 09:29:02;;;;;;;3.35;1.42;;;;;;;;;;5035854;28;20029;-63
2022/03/30 09:31:30;;;;;;;8.52;1.55;;;;;;;;;;5045212;28;20040;-63
2022/03/30 09:34:00;;;;;;;8.48;1.63;;;;;;;;;;5039342;28;20045;-63
2022/03/30 09:36:31;;;;;;;6.13;1.75;;;;;;;;;;5021057;28;20041;-63
2022/03/30 09:38:58;;;;;;;4.13;1.58;;;;;;;;;;5046986;28;20040;-62
2022/03/30 09:41:25;;;;;;;4.32;1.73;;;;;;;;;;5024298;28;20445;-63
2022/03/30 09:44:02;;;;;;;6.50;1.60;;;;;;;;;;5026298;28;20103;-63
2022/03/30 09:46:29;;;;;;;11.52;2.03;;;;;;;;;;5058085;28;20036;-63
2022/03/30 09:48:56;;;;;;;5.00;1.80;;;;;;;;;;5036918;28;20379;-63
2022/03/30 09:51:29;;;;;;;6.57;1.52;;;;;;;;;;5044623;28;20082;-63
2022/03/30 09:53:56;;;;;;;6.88;1.20;;;;;;;;;;5037601;28;20073;-63
2022/03/30 09:56:24;;;;;;;5.50;1.90;;;;;;;;;;5044326;28;20059;-63
2022/03/30 09:59:00;;;;;;;5.55;2.00;;;;;;;;;;5046003;28;20048;-62
2022/03/30 10:01:32;;;;;;;7.47;1.70;;;;;;;;;;5037583;28;20148;-63
2022/03/30 10:04:00;;;;;;;4.15;1.45;;;;;;;;;;5047828;28;20040;-62
2022/03/30 10:06:28;;;;;;;4.60;1.77;;;;;;;;;;5044930;28;20033;-62
2022/03/30 10:08:55;;;;;;;4.00;1.58;;;;;;;;;;5046005;28;20047;-62
2022/03/30 10:11:23;;;;;;;6.97;1.88;;;;;;;;;;5044194;28;20040;-62
2022/03/30 10:13:51;;;;;;;4.07;1.65;;;;;;;;;;5032174;28;20038;-62
2022/03/30 10:16:20;;;;;;;3.22;1.42;;;;;;;;;;5040604;28;20504;-63
2022/03/30 10:18:48;;;;;;;3.70;1.67;;;;;;;;;;5036281;28;20043;-62
2022/03/30 10:21:20;;;;;;;7.07;2.10;;;;;;;;;;5030796;28;20049;-63
2022/03/30 10:23:52;;;;;;;7.28;1.92;;;;;;;;;;5045879;28;20040;-64
2022/03/30 10:26:33;;;;;;;4.20;1.73;;;;;;;;;;5043842;28;20041;-63
2022/03/30 10:29:02;;;;;;;5.35;1.80;;;;;;;;;;5027708;28;20152;-63
2022/03/30 10:31:30;;;;;;;6.90;2.10;;;;;;;;;;5031748;28;20037;-63
2022/03/30 10:33:57;;;;;;;6.20;1.92;;;;;;;;;;5044470;28;20041;-63
2022/03/30 10:36:23;;;;;;;8.73;2.25;;;;;;;;;;5043252;28;20457;-64
2022/03/30 10:39:09;;;;;;;4.13;1.75;;;;;;;;;;5045616;28;20037;-62
2022/03/30 10:41:56;;;;;;;5.30;1.77;;;;;;;;;;5044882;28;20163;-63
2022/03/30 10:44:35;;;;;;;4.55;1.77;;;;;;;;;;5043992;28;20045;-62
2022/03/30 10:47:19;;;;;;;4.40;1.92;;;;;;;;;;5037036;28;20038;-63
2022/03/30 10:49:50;;;;;;;4.57;1.92;;;;;;;;;;5034640;28;20044;-62
2022/03/30 10:52:35;;;;;;;3.30;1.48;;;;;;;;;;5044634;28;20025;-62
2022/03/30 10:55:16;;;;;;;5.65;1.92;;;;;;;;;;5037151;28;20073;-61
2022/03/30 10:58:03;;;;;;;4.55;2.35;;;;;;;;;;5042449;28;20064;-60
2022/03/30 11:00:33;;;;;;;7.40;2.58;;;;;;;;;;5042897;28;20045;-63
2022/03/30 11:03:14;;;;;;;13.60;2.80;;;;;;;;;;5045128;28;20448;-62
2022/03/30 11:05:44;;;;;;;7.88;2.92;;;;;;;;;;5058509;28;20040;-64
2022/03/30 11:08:29;;;;;;;7.93;3.08;;;;;;;;;;5043572;28;20087;-63
2022/03/30 11:10:56;;;;;;;10.38;2.70;;;;;;;;;;5043550;28;20154;-62
2022/03/30 11:13:24;;;;;;;12.77;3.00;;;;;;;;;;5041011;28;20067;-63
2022/03/30 11:16:00;;;;;;;7.00;2.67;;;;;;;;;;5041539;28;20048;-61
2022/03/30 11:18:28;;;;;;;6.75;2.83;;;;;;;;;;5019206;28;20073;-62
2022/03/30 11:21:16;;;;;;;10.93;2.88;;;;;;;;;;5017943;28;20061;-62
2022/03/30 11:24:01;;;;;;;5.45;2.63;;;;;;;;;;5032674;28;20385;-62
2022/03/30 11:27:06;;;;;;;7.55;2.75;;;;;;;;;;5041620;28;20080;-63
2022/03/30 11:29:55;;;;;;;7.70;2.60;;;;;;;;;;5035018;28;20041;-63
2022/03/30 11:32:25;;;;;;;10.07;2.80;;;;;;;;;;5028968;28;20592;-63
2022/03/30 11:35:01;;;;;;;9.60;2.92;;;;;;;;;;5043256;28;20490;-62
2022/03/30 11:37:28;;;;;;;5.63;2.63;;;;;;;;;;5043242;28;20044;-61
2022/03/30 11:40:10;;;;;;;9.98;3.15;;;;;;;;;;5044572;28;20432;-63
2022/03/30 11:42:42;;;;;;;11.98;2.92;;;;;;;;;;5043239;28;20059;-64
2022/03/30 11:45:13;;;;;;;7.50;3.03;;;;;;;;;;5043336;28;20052;-62
2022/03/30 11:47:53;;;;;;;9.65;3.13;;;;;;;;;;5042856;28;20703;-61
2022/03/30 11:50:25;;;;;;;21.23;3.33;;;;;;;;;;5043820;28;20037;-63
2022/03/30 11:53:02;;;;;;;20.73;3.88;;;;;;;;;;5038285;28;20702;-63
2022/03/30 11:55:30;;;;;;;17.50;3.45;;;;;;;;;;5040458;28;20041;-62
2022/03/30 11:57:58;;;;;;;9.63;2.97;;;;;;;;;;5043661;28;20064;-63
2022/03/30 12:00:26;;;;;;;15.55;3.38;;;;;;;;;;5043248;28;20079;-64
2022/03/30 12:02:55;;;;;;;12.52;3.45;;;;;;;;;;5041867;28;20091;-62
2022/03/30 12:05:22;;;;;;;19.67;3.70;;;;;;;;;;5053811;28;20072;-64
2022/03/30 12:07:57;;;;;;;20.08;3.13;;;;;;;;;;5039962;28;20029;-62
2022/03/30 12:10:29;;;;;;;22.50;3.83;;;;;;;;;;5042034;28;20505;-62
2022/03/30 12:12:56;;;;;;;11.87;4.20;;;;;;;;;;5041738;28;20033;-63
2022/03/30 12:15:23;;;;;;;12.52;3.80;;;;;;;;;;5043008;28;20290;-64
2022/03/30 12:17:51;;;;;;;10.10;3.28;;;;;;;;;;5043511;28;20079;-62
2022/03/30 12:20:22;;;;;;;14.80;3.38;;;;;;;;;;5043800;28;20045;-65
2022/03/30 12:22:58;;;;;;;14.88;3.38;;;;;;;;;;5034252;28;20396;-64
2022/03/30 12:25:27;;;;;;;10.13;3.40;;;;;;;;;;5031543;28;20039;-63
2022/03/30 12:27:53;;;;;;;17.65;3.40;;;;;;;;;;5042092;28;20186;-64
2022/03/30 12:30:20;;;;;;;13.57;3.63;;;;;;;;;;5042171;28;20041;-64
2022/03/30 12:32:47;;;;;;;7.78;3.25;;;;;;;;;;5030074;28;20060;-61
2022/03/30 12:35:18;;;;;;;9.20;2.90;;;;;;;;;;5040597;28;20040;-62
2022/03/30 12:37:46;;;;;;;13.57;2.70;;;;;;;;;;5040457;28;20095;-62
2022/03/30 12:40:15;;;;;;;20.65;4.10;;;;;;;;;;5032200;28;20053;-63
2022/03/30 12:42:44;;;;;;;37.35;11.90;;;;;;;;;;5039115;28;20051;-63
2022/03/30 12:45:14;;;;;;;14.32;4.25;;;;;;;;;;5038904;28;20111;-64
2022/03/30 12:47:46;;;;;;;14.07;3.95;;;;;;;;;;5041708;28;20076;-64
2022/03/30 12:50:15;;;;;;;18.95;3.90;;;;;;;;;;5042896;28;20045;-63
2022/03/30 12:52:45;;;;;;;17.50;3.17;;;;;;;;;;5043629;28;20072;-63
2022/03/30 12:55:18;;;;;;;17.92;3.30;;;;;;;;;;5032813;28;20473;-62
2022/03/30 12:57:52;;;;;;;15.23;3.40;;;;;;;;;;5040706;28;20075;-65
2022/03/30 13:00:19;;;;;;;24.85;3.70;;;;;;;;;;5042122;28;20040;-62
2022/03/30 13:02:47;;;;;;;19.00;4.55;;;;;;;;;;5035929;28;20041;-62
2022/03/30 13:05:24;;;;;;;15.35;3.50;;;;;;;;;;5017316;28;20603;-64
2022/03/30 13:07:52;;;;;;;16.67;3.83;;;;;;;;;;5019062;28;20905;-62
2022/03/30 13:10:20;;;;;;;21.42;3.38;;;;;;;;;;5028628;28;20056;-65
2022/03/30 13:12:55;;;;;;;11.13;3.25;;;;;;;;;;5037255;28;20052;-64
2022/03/30 13:15:22;;;;;;;11.02;3.53;;;;;;;;;;5027287;28;20095;-64
2022/03/30 13:18:03;;;;;;;23.17;3.42;;;;;;;;;;5036813;28;20398;-65
2022/03/30 13:20:31;;;;;;;19.00;3.30;;;;;;;;;;5038238;28;20049;-63
2022/03/30 13:23:02;;;;;;;13.95;3.40;;;;;;;;;;5041351;28;20515;-63
2022/03/30 13:25:33;;;;;;;10.93;3.38;;;;;;;;;;5043942;28;20048;-62
2022/03/30 13:28:02;;;;;;;23.30;3.42;;;;;;;;;;5047035;28;20033;-62
2022/03/30 13:30:32;;;;;;;9.25;3.28;;;;;;;;;;5046422;28;20391;-64
2022/03/30 13:32:59;;;;;;;15.02;3.25;;;;;;;;;;5047001;28;20061;-64
2022/03/30 13:35:27;;;;;;;10.38;3.63;;;;;;;;;;5045071;28;20040;-64
2022/03/30 13:37:54;;;;;;;11.00;3.50;;;;;;;;;;5044478;28;20094;-62
2022/03/30 13:40:24;;;;;;;12.75;3.53;;;;;;;;;;5046036;28;20037;-63
2022/03/30 13:42:51;;;;;;;17.95;3.88;;;;;;;;;;5042223;28;20497;-64
2022/03/30 13:45:18;;;;;;;21.13;3.65;;;;;;;;;;5046467;28;20075;-65
2022/03/30 13:47:45;;;;;;;11.20;3.40;;;;;;;;;;5036085;28;20040;-64
2022/03/30 13:50:13;;;;;;;13.68;3.38;;;;;;;;;;5045813;28;20032;-63
2022/03/30 13:52:40;;;;;;;11.02;2.92;;;;;;;;;;5021099;28;20033;-63
2022/03/30 13:55:08;;;;;;;16.52;3.67;;;;;;;;;;5039346;28;20055;-62
2022/03/30 13:57:35;;;;;;;10.00;3.63;;;;;;;;;;5045606;28;20049;-64
2022/03/30 14:00:02;;;;;;;8.60;3.38;;;;;;;;;;5038931;28;20040;-63
2022/03/30 14:02:28;;;;;;;7.30;3.25;;;;;;;;;;5060162;28;20082;-64
2022/03/30 14:04:55;;;;;;;4.38;2.35;;;;;;;;;;5046567;28;20044;-64
2022/03/30 14:07:22;;;;;;;11.93;3.20;;;;;;;;;;5044582;28;20033;-67
2022/03/30 14:09:54;;;;;;;8.23;3.30;;;;;;;;;;5048063;28;20083;-63
2022/03/30 14:12:21;;;;;;;8.20;2.97;;;;;;;;;;5036907;28;20123;-63
2022/03/30 14:14:48;;;;;;;13.35;3.80;;;;;;;;;;5043072;28;20042;-64
2022/03/30 14:17:15;;;;;;;12.13;3.00;;;;;;;;;;5040869;28;20053;-63
2022/03/30 14:19:43;;;;;;;10.82;3.47;;;;;;;;;;5033173;28;20044;-62
2022/03/30 14:22:09;;;;;;;15.25;3.70;;;;;;;;;;5023116;28;20053;-64
2022/03/30 14:24:38;;;;;;;17.35;3.63;;;;;;;;;;5023748;28;20486;-62
2022/03/30 14:27:04;;;;;;;11.68;3.90;;;;;;;;;;5039391;28;20037;-62
2022/03/30 14:29:31;;;;;;;19.88;3.90;;;;;;;;;;5043071;28;20187;-63
2022/03/30 14:31:59;;;;;;;10.55;3.70;;;;;;;;;;5045671;28;20052;-63
2022/03/30 14:34:26;;;;;;;9.85;3.47;;;;;;;;;;5043913;28;20110;-63
2022/03/30 14:36:54;;;;;;;14.77;3.50;;;;;;;;;;5026186;28;20567;-63
2022/03/30 14:39:21;;;;;;;27.40;4.70;;;;;;;;;;5044900;28;20116;-64
2022/03/30 14:41:49;;;;;;;20.50;7.38;;;;;;;;;;5038999;28;20083;-63
2022/03/30 14:44:16;;;;;;;30.05;11.15;;;;;;;;;;5043842;28;20043;-63
2022/03/30 14:46:43;;;;;;;31.35;12.32;;;;;;;;;;5042927;28;20162;-64
2022/03/30 14:49:10;;;;;;;39.45;9.52;;;;;;;;;;5046147;28;20070;-64
2022/03/30 14:51:38;;;;;;;31.98;5.32;;;;;;;;;;5043072;28;20516;-64
2022/03/30 14:54:05;;;;;;;11.20;5.22;;;;;;;;;;5037159;28;20033;-63
2022/03/30 14:56:32;;;;;;;14.18;4.43;;;;;;;;;;5030716;28;20481;-63
2022/03/30 14:58:59;;;;;;;22.48;3.75;;;;;;;;;;5035616;28;20065;-64
2022/03/30 15:01:26;;;;;;;18.33;3.20;;;;;;;;;;5054225;28;20123;-63
2022/03/30 15:03:53;;;;;;;18.30;3.38;;;;;;;;;;5019980;28;20114;-63
2022/03/30 15:06:20;;;;;;;13.38;3.28;;;;;;;;;;5018596;28;20607;-63
2022/03/30 15:08:49;;;;;;;12.95;3.10;;;;;;;;;;5030680;28;20398;-63